sensor_id;sensor_type;location;lat;lon;timestamp;P1;durP1;ratioP1;P2;durP2;ratioP2
37389;SDS011;39679;49.000;8.390;2022-10-26T00:04:23;3.40;;;1.70;;
37389;SDS011;39679;49.000;8.390;2022-10-26T00:09:24;3.93;;;1.90;;
37389;SDS011;39679;49.000;8.390;2022-10-26T00:14:25;3.03;;;1.50;;
37389;SDS011;39679;49.000;8.390;2022-10-26T00:19:25;4.35;;;1.65;;
37389;SDS011;39679;49.000;8.390;2022-10-26T00:24:26;3.30;;;1.80;;
37389;SDS011;39679;49.000;8.390;2022-10-26T00:29:26;4.60;;;2.00;;
37389;SDS011;39679;49.000;8.390;2022-10-26T00:34:26;5.68;;;2.47;;
37389;SDS011;39679;49.000;8.390;2022-10-26T00:39:27;3.92;;;1.60;;
37389;SDS011;39679;49.000;8.390;2022-10-26T00:49:46;2.83;;;1.70;;
37389;SDS011;39679;49.000;8.390;2022-10-26T00:54:48;4.25;;;1.55;;
37389;SDS011;39679;49.000;8.390;2022-10-26T00:59:49;4.03;;;1.85;;
37389;SDS011;39679;49.000;8.390;2022-10-26T01:04:52;2.13;;;1.77;;
37389;SDS011;39679;49.000;8.390;2022-10-26T01:09:54;3.63;;;1.70;;
37389;SDS011;39679;49.000;8.390;2022-10-26T01:14:55;2.40;;;1.30;;
37389;SDS011;39679;49.000;8.390;2022-10-26T01:30:45;2.03;;;1.42;;
37389;SDS011;39679;49.000;8.390;2022-10-26T01:41:24;3.67;;;1.70;;
37389;SDS011;39679;49.000;8.390;2022-10-26T01:46:22;2.13;;;1.40;;
37389;SDS011;39679;49.000;8.390;2022-10-26T01:51:25;2.78;;;1.35;;
37389;SDS011;39679;49.000;8.390;2022-10-26T01:56:28;2.10;;;1.45;;
37389;SDS011;39679;49.000;8.390;2022-10-26T02:12:11;3.25;;;1.48;;
37389;SDS011;39679;49.000;8.390;2022-10-26T02:17:41;2.55;;;1.50;;
37389;SDS011;39679;49.000;8.390;2022-10-26T02:22:46;4.18;;;1.60;;
37389;SDS011;39679;49.000;8.390;2022-10-26T02:27:50;2.40;;;1.80;;
37389;SDS011;39679;49.000;8.390;2022-10-26T02:32:55;1.70;;;1.23;;
37389;SDS011;39679;49.000;8.390;2022-10-26T02:37:58;1.85;;;1.20;;
37389;SDS011;39679;49.000;8.390;2022-10-26T02:43:04;2.53;;;1.73;;
37389;SDS011;39679;49.000;8.390;2022-10-26T02:48:08;3.40;;;1.70;;
37389;SDS011;39679;49.000;8.390;2022-10-26T02:53:11;1.15;;;1.00;;
37389;SDS011;39679;49.000;8.390;2022-10-26T02:58:37;2.15;;;1.40;;
37389;SDS011;39679;49.000;8.390;2022-10-26T03:03:43;2.85;;;1.33;;
37389;SDS011;39679;49.000;8.390;2022-10-26T03:08:43;2.22;;;1.35;;
37389;SDS011;39679;49.000;8.390;2022-10-26T03:13:43;2.22;;;1.30;;
37389;SDS011;39679;49.000;8.390;2022-10-26T03:18:44;2.72;;;1.13;;
37389;SDS011;39679;49.000;8.390;2022-10-26T03:23:44;1.50;;;1.27;;
37389;SDS011;39679;49.000;8.390;2022-10-26T03:28:45;1.98;;;1.20;;
37389;SDS011;39679;49.000;8.390;2022-10-26T03:33:45;1.95;;;1.33;;
37389;SDS011;39679;49.000;8.390;2022-10-26T03:38:46;1.80;;;1.30;;
37389;SDS011;39679;49.000;8.390;2022-10-26T03:43:46;2.40;;;1.10;;
37389;SDS011;39679;49.000;8.390;2022-10-26T03:48:46;1.40;;;1.17;;
37389;SDS011;39679;49.000;8.390;2022-10-26T03:53:47;1.80;;;1.20;;
37389;SDS011;39679;49.000;8.390;2022-10-26T03:58:47;2.22;;;1.30;;
37389;SDS011;39679;49.000;8.390;2022-10-26T04:03:47;1.15;;;1.05;;
37389;SDS011;39679;49.000;8.390;2022-10-26T04:08:48;1.87;;;1.30;;
37389;SDS011;39679;49.000;8.390;2022-10-26T04:13:48;1.70;;;1.27;;
37389;SDS011;39679;49.000;8.390;2022-10-26T04:18:48;1.70;;;1.20;;
37389;SDS011;39679;49.000;8.390;2022-10-26T04:23:49;2.17;;;1.20;;
37389;SDS011;39679;49.000;8.390;2022-10-26T04:28:49;1.87;;;1.20;;
37389;SDS011;39679;49.000;8.390;2022-10-26T04:33:49;2.37;;;1.13;;
37389;SDS011;39679;49.000;8.390;2022-10-26T04:38:49;2.10;;;1.40;;
37389;SDS011;39679;49.000;8.390;2022-10-26T04:43:50;1.70;;;1.17;;
37389;SDS011;39679;49.000;8.390;2022-10-26T04:48:50;2.95;;;1.38;;
37389;SDS011;39679;49.000;8.390;2022-10-26T04:53:52;1.37;;;1.13;;
37389;SDS011;39679;49.000;8.390;2022-10-26T04:58:53;2.17;;;1.20;;
37389;SDS011;39679;49.000;8.390;2022-10-26T05:03:54;1.25;;;1.10;;
37389;SDS011;39679;49.000;8.390;2022-10-26T05:08:54;1.47;;;1.10;;
37389;SDS011;39679;49.000;8.390;2022-10-26T05:13:54;1.63;;;1.23;;
37389;SDS011;39679;49.000;8.390;2022-10-26T05:18:55;1.63;;;1.20;;
37389;SDS011;39679;49.000;8.390;2022-10-26T05:23:55;2.00;;;1.30;;
37389;SDS011;39679;49.000;8.390;2022-10-26T05:28:55;1.97;;;1.30;;
37389;SDS011;39679;49.000;8.390;2022-10-26T05:33:56;1.17;;;1.07;;
37389;SDS011;39679;49.000;8.390;2022-10-26T05:38:56;1.23;;;0.90;;
37389;SDS011;39679;49.000;8.390;2022-10-26T05:43:57;2.40;;;1.40;;
37389;SDS011;39679;49.000;8.390;2022-10-26T05:48:58;1.58;;;1.20;;
37389;SDS011;39679;49.000;8.390;2022-10-26T05:53:58;2.25;;;1.10;;
37389;SDS011;39679;49.000;8.390;2022-10-26T05:58:59;2.03;;;1.08;;
37389;SDS011;39679;49.000;8.390;2022-10-26T06:09:11;2.35;;;1.23;;
37389;SDS011;39679;49.000;8.390;2022-10-26T06:14:13;1.45;;;1.20;;
37389;SDS011;39679;49.000;8.390;2022-10-26T06:30:22;2.28;;;1.40;;
37389;SDS011;39679;49.000;8.390;2022-10-26T06:35:25;1.63;;;1.17;;
37389;SDS011;39679;49.000;8.390;2022-10-26T06:40:39;2.13;;;1.60;;
37389;SDS011;39679;49.000;8.390;2022-10-26T06:45:45;1.35;;;1.17;;
37389;SDS011;39679;49.000;8.390;2022-10-26T06:50:50;1.45;;;1.10;;
37389;SDS011;39679;49.000;8.390;2022-10-26T06:55:52;1.75;;;1.33;;
37389;SDS011;39679;49.000;8.390;2022-10-26T07:00:53;1.50;;;1.30;;
37389;SDS011;39679;49.000;8.390;2022-10-26T07:05:54;1.60;;;1.20;;
37389;SDS011;39679;49.000;8.390;2022-10-26T07:10:54;2.90;;;1.42;;
37389;SDS011;39679;49.000;8.390;2022-10-26T07:15:55;4.97;;;2.30;;
37389;SDS011;39679;49.000;8.390;2022-10-26T07:20:57;4.00;;;2.00;;
37389;SDS011;39679;49.000;8.390;2022-10-26T07:25:58;5.10;;;2.53;;
37389;SDS011;39679;49.000;8.390;2022-10-26T07:30:59;5.82;;;2.45;;
37389;SDS011;39679;49.000;8.390;2022-10-26T07:35:59;5.70;;;2.37;;
37389;SDS011;39679;49.000;8.390;2022-10-26T07:41:00;4.78;;;2.28;;
37389;SDS011;39679;49.000;8.390;2022-10-26T07:46:01;8.93;;;2.28;;
37389;SDS011;39679;49.000;8.390;2022-10-26T07:51:01;4.75;;;2.28;;
37389;SDS011;39679;49.000;8.390;2022-10-26T07:56:01;3.63;;;1.75;;
37389;SDS011;39679;49.000;8.390;2022-10-26T08:01:06;2.65;;;2.00;;
37389;SDS011;39679;49.000;8.390;2022-10-26T08:06:08;8.05;;;2.55;;
37389;SDS011;39679;49.000;8.390;2022-10-26T08:11:08;5.63;;;2.35;;
37389;SDS011;39679;49.000;8.390;2022-10-26T08:16:08;5.93;;;2.63;;
37389;SDS011;39679;49.000;8.390;2022-10-26T08:21:09;4.90;;;2.30;;
37389;SDS011;39679;49.000;8.390;2022-10-26T08:26:10;4.85;;;2.45;;
37389;SDS011;39679;49.000;8.390;2022-10-26T08:31:10;6.40;;;2.45;;
37389;SDS011;39679;49.000;8.390;2022-10-26T08:36:11;7.23;;;2.87;;
37389;SDS011;39679;49.000;8.390;2022-10-26T08:41:11;4.45;;;2.17;;
37389;SDS011;39679;49.000;8.390;2022-10-26T08:46:32;6.43;;;2.60;;
37389;SDS011;39679;49.000;8.390;2022-10-26T08:51:38;3.75;;;2.17;;
37389;SDS011;39679;49.000;8.390;2022-10-26T08:56:42;7.28;;;2.45;;
37389;SDS011;39679;49.000;8.390;2022-10-26T09:01:49;6.00;;;2.70;;
37389;SDS011;39679;49.000;8.390;2022-10-26T09:06:54;5.75;;;2.58;;
37389;SDS011;39679;49.000;8.390;2022-10-26T09:12:07;6.65;;;2.58;;
37389;SDS011;39679;49.000;8.390;2022-10-26T09:17:22;4.15;;;2.40;;
37389;SDS011;39679;49.000;8.390;2022-10-26T09:22:52;5.13;;;2.10;;
37389;SDS011;39679;49.000;8.390;2022-10-26T09:28:17;4.47;;;2.20;;
37389;SDS011;39679;49.000;8.390;2022-10-26T09:33:18;6.88;;;2.10;;
37389;SDS011;39679;49.000;8.390;2022-10-26T09:38:24;6.05;;;2.22;;
37389;SDS011;39679;49.000;8.390;2022-10-26T09:48:48;5.80;;;2.30;;
37389;SDS011;39679;49.000;8.390;2022-10-26T09:59:03;5.85;;;2.17;;
37389;SDS011;39679;49.000;8.390;2022-10-26T10:14:16;8.68;;;2.30;;
37389;SDS011;39679;49.000;8.390;2022-10-26T10:19:20;6.37;;;2.20;;
37389;SDS011;39679;49.000;8.390;2022-10-26T10:29:33;4.93;;;2.00;;
37389;SDS011;39679;49.000;8.390;2022-10-26T10:34:39;5.18;;;1.90;;
37389;SDS011;39679;49.000;8.390;2022-10-26T10:39:40;8.50;;;2.08;;
37389;SDS011;39679;49.000;8.390;2022-10-26T10:44:41;4.38;;;1.95;;
37389;SDS011;39679;49.000;8.390;2022-10-26T10:49:43;6.18;;;2.03;;
37389;SDS011;39679;49.000;8.390;2022-10-26T10:54:53;8.40;;;2.75;;
37389;SDS011;39679;49.000;8.390;2022-10-26T11:00:13;7.32;;;2.55;;
37389;SDS011;39679;49.000;8.390;2022-10-26T11:10:22;5.13;;;2.17;;
37389;SDS011;39679;49.000;8.390;2022-10-26T11:15:27;8.25;;;2.60;;
37389;SDS011;39679;49.000;8.390;2022-10-26T11:20:31;5.70;;;1.95;;
37389;SDS011;39679;49.000;8.390;2022-10-26T11:25:57;6.65;;;1.95;;
37389;SDS011;39679;49.000;8.390;2022-10-26T11:31:04;6.43;;;2.20;;
37389;SDS011;39679;49.000;8.390;2022-10-26T11:36:11;7.68;;;2.30;;
37389;SDS011;39679;49.000;8.390;2022-10-26T11:41:50;5.85;;;2.42;;
37389;SDS011;39679;49.000;8.390;2022-10-26T11:47:01;6.07;;;2.10;;
37389;SDS011;39679;49.000;8.390;2022-10-26T11:57:27;8.95;;;2.00;;
37389;SDS011;39679;49.000;8.390;2022-10-26T12:02:29;5.15;;;2.10;;
37389;SDS011;39679;49.000;8.390;2022-10-26T12:07:35;5.10;;;2.17;;
37389;SDS011;39679;49.000;8.390;2022-10-26T12:12:58;5.10;;;2.10;;
37389;SDS011;39679;49.000;8.390;2022-10-26T12:23:09;3.55;;;1.90;;
37389;SDS011;39679;49.000;8.390;2022-10-26T12:33:47;4.47;;;1.88;;
37389;SDS011;39679;49.000;8.390;2022-10-26T12:38:58;5.97;;;2.08;;
37389;SDS011;39679;49.000;8.390;2022-10-26T12:44:01;6.50;;;2.42;;
37389;SDS011;39679;49.000;8.390;2022-10-26T13:00:13;7.22;;;2.25;;
37389;SDS011;39679;49.000;8.390;2022-10-26T13:11:05;4.45;;;1.67;;
37389;SDS011;39679;49.000;8.390;2022-10-26T13:16:13;6.20;;;2.33;;
37389;SDS011;39679;49.000;8.390;2022-10-26T13:21:15;5.20;;;1.73;;
37389;SDS011;39679;49.000;8.390;2022-10-26T13:26:17;5.00;;;2.10;;
37389;SDS011;39679;49.000;8.390;2022-10-26T13:41:41;4.80;;;2.05;;
37389;SDS011;39679;49.000;8.390;2022-10-26T13:46:44;4.03;;;1.97;;
37389;SDS011;39679;49.000;8.390;2022-10-26T13:51:46;5.22;;;1.90;;
37389;SDS011;39679;49.000;8.390;2022-10-26T13:57:09;6.18;;;2.17;;
37389;SDS011;39679;49.000;8.390;2022-10-26T14:07:23;5.78;;;1.77;;
37389;SDS011;39679;49.000;8.390;2022-10-26T14:12:28;5.22;;;2.22;;
37389;SDS011;39679;49.000;8.390;2022-10-26T14:17:29;5.60;;;2.15;;
37389;SDS011;39679;49.000;8.390;2022-10-26T14:22:29;6.07;;;1.65;;
37389;SDS011;39679;49.000;8.390;2022-10-26T14:27:31;4.15;;;1.67;;
37389;SDS011;39679;49.000;8.390;2022-10-26T14:32:37;4.07;;;1.70;;
37389;SDS011;39679;49.000;8.390;2022-10-26T14:37:40;3.50;;;1.50;;
37389;SDS011;39679;49.000;8.390;2022-10-26T14:42:46;4.50;;;1.60;;
37389;SDS011;39679;49.000;8.390;2022-10-26T14:47:48;4.05;;;1.67;;
37389;SDS011;39679;49.000;8.390;2022-10-26T14:52:50;4.50;;;1.50;;
37389;SDS011;39679;49.000;8.390;2022-10-26T14:58:13;5.13;;;1.98;;
37389;SDS011;39679;49.000;8.390;2022-10-26T15:03:17;3.90;;;1.70;;
37389;SDS011;39679;49.000;8.390;2022-10-26T15:18:43;4.13;;;1.67;;
37389;SDS011;39679;49.000;8.390;2022-10-26T15:23:46;5.25;;;1.70;;
37389;SDS011;39679;49.000;8.390;2022-10-26T15:28:46;4.78;;;2.03;;
37389;SDS011;39679;49.000;8.390;2022-10-26T15:38:50;6.00;;;2.40;;
37389;SDS011;39679;49.000;8.390;2022-10-26T15:43:51;5.85;;;2.10;;
37389;SDS011;39679;49.000;8.390;2022-10-26T15:48:55;6.57;;;2.65;;
37389;SDS011;39679;49.000;8.390;2022-10-26T15:53:58;8.32;;;3.05;;
37389;SDS011;39679;49.000;8.390;2022-10-26T15:59:00;12.32;;;2.90;;
37389;SDS011;39679;49.000;8.390;2022-10-26T16:04:01;7.22;;;3.00;;
37389;SDS011;39679;49.000;8.390;2022-10-26T16:09:02;7.60;;;2.90;;
37389;SDS011;39679;49.000;8.390;2022-10-26T16:14:04;7.22;;;2.30;;
37389;SDS011;39679;49.000;8.390;2022-10-26T16:19:04;6.88;;;2.65;;
37389;SDS011;39679;49.000;8.390;2022-10-26T16:24:05;5.63;;;2.83;;
37389;SDS011;39679;49.000;8.390;2022-10-26T16:29:05;8.00;;;2.78;;
37389;SDS011;39679;49.000;8.390;2022-10-26T16:34:05;7.37;;;2.93;;
37389;SDS011;39679;49.000;8.390;2022-10-26T16:39:06;5.35;;;2.75;;
37389;SDS011;39679;49.000;8.390;2022-10-26T16:44:09;5.90;;;2.53;;
37389;SDS011;39679;49.000;8.390;2022-10-26T16:49:11;6.68;;;3.15;;
37389;SDS011;39679;49.000;8.390;2022-10-26T16:54:11;6.27;;;3.00;;
37389;SDS011;39679;49.000;8.390;2022-10-26T16:59:11;8.07;;;3.17;;
37389;SDS011;39679;49.000;8.390;2022-10-26T17:04:12;6.88;;;3.30;;
37389;SDS011;39679;49.000;8.390;2022-10-26T17:09:12;7.68;;;2.90;;
37389;SDS011;39679;49.000;8.390;2022-10-26T17:14:12;8.18;;;3.33;;
37389;SDS011;39679;49.000;8.390;2022-10-26T17:19:13;8.25;;;3.58;;
37389;SDS011;39679;49.000;8.390;2022-10-26T17:24:13;11.52;;;3.63;;
37389;SDS011;39679;49.000;8.390;2022-10-26T17:29:14;8.45;;;3.92;;
37389;SDS011;39679;49.000;8.390;2022-10-26T17:34:14;6.88;;;3.97;;
37389;SDS011;39679;49.000;8.390;2022-10-26T17:39:15;11.13;;;3.60;;
37389;SDS011;39679;49.000;8.390;2022-10-26T17:44:15;8.97;;;4.10;;
37389;SDS011;39679;49.000;8.390;2022-10-26T17:49:15;11.03;;;4.90;;
37389;SDS011;39679;49.000;8.390;2022-10-26T17:54:15;9.93;;;6.05;;
37389;SDS011;39679;49.000;8.390;2022-10-26T17:59:16;11.52;;;5.38;;
37389;SDS011;39679;49.000;8.390;2022-10-26T18:04:16;9.15;;;4.10;;
37389;SDS011;39679;49.000;8.390;2022-10-26T18:09:17;10.73;;;5.18;;
37389;SDS011;39679;49.000;8.390;2022-10-26T18:14:19;7.85;;;4.57;;
37389;SDS011;39679;49.000;8.390;2022-10-26T18:19:20;16.13;;;7.18;;
37389;SDS011;39679;49.000;8.390;2022-10-26T18:24:20;12.52;;;6.53;;
37389;SDS011;39679;49.000;8.390;2022-10-26T18:29:20;10.27;;;5.90;;
37389;SDS011;39679;49.000;8.390;2022-10-26T18:34:21;8.40;;;5.13;;
37389;SDS011;39679;49.000;8.390;2022-10-26T18:39:21;9.30;;;4.70;;
37389;SDS011;39679;49.000;8.390;2022-10-26T18:44:21;7.67;;;4.60;;
37389;SDS011;39679;49.000;8.390;2022-10-26T18:49:22;11.10;;;4.87;;
37389;SDS011;39679;49.000;8.390;2022-10-26T18:54:22;8.18;;;4.90;;
37389;SDS011;39679;49.000;8.390;2022-10-26T18:59:22;10.03;;;5.00;;
37389;SDS011;39679;49.000;8.390;2022-10-26T19:04:23;10.88;;;5.60;;
37389;SDS011;39679;49.000;8.390;2022-10-26T19:09:23;9.75;;;5.35;;
37389;SDS011;39679;49.000;8.390;2022-10-26T19:14:24;8.80;;;4.85;;
37389;SDS011;39679;49.000;8.390;2022-10-26T19:19:24;10.13;;;5.53;;
37389;SDS011;39679;49.000;8.390;2022-10-26T19:24:24;11.47;;;5.70;;
37389;SDS011;39679;49.000;8.390;2022-10-26T19:29:25;9.88;;;5.82;;
37389;SDS011;39679;49.000;8.390;2022-10-26T19:34:26;10.80;;;5.65;;
37389;SDS011;39679;49.000;8.390;2022-10-26T19:39:26;8.53;;;5.30;;
37389;SDS011;39679;49.000;8.390;2022-10-26T19:44:26;8.10;;;5.00;;
37389;SDS011;39679;49.000;8.390;2022-10-26T19:49:27;8.60;;;4.93;;
37389;SDS011;39679;49.000;8.390;2022-10-26T19:54:27;9.67;;;5.00;;
37389;SDS011;39679;49.000;8.390;2022-10-26T19:59:30;8.05;;;4.63;;
37389;SDS011;39679;49.000;8.390;2022-10-26T20:04:31;9.03;;;4.20;;
37389;SDS011;39679;49.000;8.390;2022-10-26T20:09:31;8.90;;;4.20;;
37389;SDS011;39679;49.000;8.390;2022-10-26T20:14:31;8.50;;;4.93;;
37389;SDS011;39679;49.000;8.390;2022-10-26T20:19:32;9.05;;;4.97;;
37389;SDS011;39679;49.000;8.390;2022-10-26T20:24:32;7.22;;;4.40;;
37389;SDS011;39679;49.000;8.390;2022-10-26T20:29:33;6.85;;;4.00;;
37389;SDS011;39679;49.000;8.390;2022-10-26T20:34:33;13.05;;;5.38;;
37389;SDS011;39679;49.000;8.390;2022-10-26T20:39:33;9.00;;;5.20;;
37389;SDS011;39679;49.000;8.390;2022-10-26T20:44:37;8.00;;;4.50;;
37389;SDS011;39679;49.000;8.390;2022-10-26T20:49:41;8.02;;;4.13;;
37389;SDS011;39679;49.000;8.390;2022-10-26T20:54:44;8.77;;;4.97;;
37389;SDS011;39679;49.000;8.390;2022-10-26T20:59:53;7.35;;;4.63;;
37389;SDS011;39679;49.000;8.390;2022-10-26T21:04:57;8.00;;;4.78;;
37389;SDS011;39679;49.000;8.390;2022-10-26T21:09:57;10.30;;;5.07;;
37389;SDS011;39679;49.000;8.390;2022-10-26T21:14:57;9.38;;;4.25;;
37389;SDS011;39679;49.000;8.390;2022-10-26T21:19:58;9.98;;;4.38;;
37389;SDS011;39679;49.000;8.390;2022-10-26T21:24:58;7.63;;;4.72;;
37389;SDS011;39679;49.000;8.390;2022-10-26T21:29:59;10.03;;;4.77;;
37389;SDS011;39679;49.000;8.390;2022-10-26T21:34:59;8.80;;;4.65;;
37389;SDS011;39679;49.000;8.390;2022-10-26T21:39:59;8.35;;;4.65;;
37389;SDS011;39679;49.000;8.390;2022-10-26T21:45:00;8.73;;;4.10;;
37389;SDS011;39679;49.000;8.390;2022-10-26T21:50:00;6.70;;;3.90;;
37389;SDS011;39679;49.000;8.390;2022-10-26T21:55:00;8.97;;;3.93;;
37389;SDS011;39679;49.000;8.390;2022-10-26T22:00:01;9.63;;;3.95;;
37389;SDS011;39679;49.000;8.390;2022-10-26T22:05:01;7.63;;;4.35;;
37389;SDS011;39679;49.000;8.390;2022-10-26T22:10:02;8.35;;;4.00;;
37389;SDS011;39679;49.000;8.390;2022-10-26T22:15:02;9.18;;;3.60;;
37389;SDS011;39679;49.000;8.390;2022-10-26T22:20:03;6.97;;;3.97;;
37389;SDS011;39679;49.000;8.390;2022-10-26T22:25:05;7.30;;;3.65;;
37389;SDS011;39679;49.000;8.390;2022-10-26T22:30:05;6.43;;;3.97;;
37389;SDS011;39679;49.000;8.390;2022-10-26T22:35:06;8.65;;;3.85;;
37389;SDS011;39679;49.000;8.390;2022-10-26T22:40:07;9.23;;;3.40;;
37389;SDS011;39679;49.000;8.390;2022-10-26T22:45:08;6.32;;;3.47;;
37389;SDS011;39679;49.000;8.390;2022-10-26T22:50:09;6.55;;;3.83;;
37389;SDS011;39679;49.000;8.390;2022-10-26T22:55:12;6.80;;;3.40;;
37389;SDS011;39679;49.000;8.390;2022-10-26T23:00:12;8.40;;;3.83;;
37389;SDS011;39679;49.000;8.390;2022-10-26T23:05:13;8.75;;;3.38;;
37389;SDS011;39679;49.000;8.390;2022-10-26T23:10:13;7.25;;;3.72;;
37389;SDS011;39679;49.000;8.390;2022-10-26T23:15:14;5.78;;;3.10;;
37389;SDS011;39679;49.000;8.390;2022-10-26T23:20:15;6.75;;;3.88;;
37389;SDS011;39679;49.000;8.390;2022-10-26T23:25:15;7.38;;;3.88;;
37389;SDS011;39679;49.000;8.390;2022-10-26T23:30:15;10.45;;;3.72;;
37389;SDS011;39679;49.000;8.390;2022-10-26T23:35:16;7.70;;;3.35;;
37389;SDS011;39679;49.000;8.390;2022-10-26T23:40:16;7.30;;;3.17;;
37389;SDS011;39679;49.000;8.390;2022-10-26T23:45:17;7.80;;;3.58;;
37389;SDS011;39679;49.000;8.390;2022-10-26T23:50:17;6.93;;;3.30;;
37389;SDS011;39679;49.000;8.390;2022-10-26T23:55:18;6.53;;;2.90;;
